createdAt,value
2023-09-26T00:00:25.188Z,56.45
2023-09-26T00:01:27.670Z,56.84
2023-09-26T00:02:29.391Z,56.85
2023-09-26T00:03:30.972Z,56.87
2023-09-26T00:04:33.332Z,56.67
2023-09-26T00:05:35.001Z,56.91
2023-09-26T00:06:36.555Z,56.95
2023-09-26T00:07:38.340Z,57.36
2023-09-26T00:08:39.973Z,56.82
2023-09-26T00:09:41.564Z,57.09
2023-09-26T00:10:43.250Z,57.12
2023-09-26T00:11:47.191Z,57.23
2023-09-26T00:12:48.980Z,57.33
2023-09-26T00:13:51.594Z,57.18
2023-09-26T00:14:53.459Z,56.90
2023-09-26T00:15:57.346Z,56.99
2023-09-26T00:16:59.408Z,56.90
2023-09-26T00:18:03.598Z,56.99
2023-09-26T00:19:05.259Z,56.89
2023-09-26T00:20:33.201Z,57.13
2023-09-26T00:21:34.892Z,57.39
2023-09-26T00:22:39.256Z,57.34
2023-09-26T00:23:40.977Z,57.49
2023-09-26T00:24:42.543Z,57.44
2023-09-26T00:25:48.349Z,57.25
2023-09-26T00:26:50.013Z,57.09
2023-09-26T00:27:54.624Z,56.96
2023-09-26T00:28:56.288Z,57.21
2023-09-26T00:30:00.591Z,57.24
2023-09-26T00:31:06.298Z,57.27
2023-09-26T00:32:08.123Z,57.23
2023-09-26T00:33:13.400Z,57.01
2023-09-26T00:34:19.171Z,57.10
2023-09-26T00:35:20.937Z,57.18
2023-09-26T00:36:22.718Z,57.03
2023-09-26T00:37:24.503Z,57.14
2023-09-26T00:38:26.230Z,57.25
2023-09-26T00:39:29.753Z,56.99
2023-09-26T00:40:31.346Z,57.18
2023-09-26T00:41:35.887Z,57.07
2023-09-26T00:42:37.568Z,57.15
2023-09-26T00:43:39.193Z,56.94
2023-09-26T00:44:40.737Z,57.02
2023-09-26T00:45:45.331Z,57.18
2023-09-26T00:46:49.322Z,57.24
2023-09-26T00:47:51.055Z,57.46
2023-09-26T00:48:52.835Z,57.18
2023-09-26T00:49:54.421Z,57.13
2023-09-26T00:50:56.404Z,56.94
2023-09-26T00:52:01.469Z,57.10
2023-09-26T00:53:04.871Z,57.16
2023-09-26T00:54:10.362Z,57.26
2023-09-26T00:55:14.816Z,57.53
2023-09-26T00:56:18.894Z,57.65
2023-09-26T00:57:21.353Z,57.48
2023-09-26T00:58:23.836Z,57.88
2023-09-26T00:59:30.660Z,57.80
2023-09-26T01:00:33.011Z,58.00
2023-09-26T01:01:35.779Z,58.23
2023-09-26T01:02:37.902Z,57.99
2023-09-26T01:03:39.686Z,58.12
2023-09-26T01:04:42.101Z,57.95
2023-09-26T01:05:43.800Z,57.78
2023-09-26T01:06:48.298Z,57.67
2023-09-26T01:07:50.490Z,57.99
2023-09-26T01:08:52.176Z,57.64
2023-09-26T01:09:54.107Z,57.98
2023-09-26T01:10:55.771Z,58.04
2023-09-26T01:11:57.418Z,57.80
2023-09-26T01:12:59.405Z,57.91
2023-09-26T01:14:01.100Z,57.86
2023-09-26T01:15:04.379Z,57.88
2023-09-26T01:16:19.319Z,58.06
2023-09-26T01:17:23.249Z,58.08
2023-09-26T01:18:28.121Z,58.25
2023-09-26T01:19:29.680Z,58.41
2023-09-26T01:20:33.700Z,58.33
2023-09-26T01:21:35.289Z,58.55
2023-09-26T01:22:37.082Z,58.26
2023-09-26T01:23:41.122Z,58.48
2023-09-26T01:24:42.682Z,58.41
2023-09-26T01:25:47.153Z,58.28
2023-09-26T01:26:48.756Z,58.38
2023-09-26T01:27:50.433Z,58.48
2023-09-26T01:28:55.281Z,58.27
2023-09-26T01:29:57.023Z,58.53
2023-09-26T01:30:58.740Z,58.54
2023-09-26T01:32:00.391Z,58.36
2023-09-26T01:33:03.520Z,58.40
2023-09-26T01:34:05.461Z,58.37
2023-09-26T01:35:07.458Z,58.39
2023-09-26T01:36:09.168Z,58.18
2023-09-26T01:37:10.753Z,58.02
2023-09-26T01:38:12.919Z,58.03
2023-09-26T01:39:14.821Z,57.96
2023-09-26T01:40:18.535Z,58.20
2023-09-26T01:41:21.129Z,58.03
2023-09-26T01:42:23.248Z,57.71
2023-09-26T01:43:26.201Z,58.07
2023-09-26T01:44:28.933Z,57.60
2023-09-26T01:45:30.544Z,57.56
2023-09-26T01:46:34.628Z,57.53
2023-09-26T01:47:42.695Z,57.50
2023-09-26T01:48:44.417Z,57.55
2023-09-26T01:49:46.007Z,57.52
2023-09-26T01:50:47.718Z,57.71
2023-09-26T01:51:49.294Z,57.51
2023-09-26T01:52:53.804Z,57.59
2023-09-26T01:53:55.365Z,57.49
2023-09-26T01:54:59.868Z,57.45
2023-09-26T01:56:01.798Z,57.52
2023-09-26T01:57:03.397Z,57.48
2023-09-26T01:58:05.118Z,57.74
2023-09-26T01:59:06.774Z,57.58
2023-09-26T02:01:53.288Z,57.71
2023-09-26T02:02:55.045Z,57.40
2023-09-26T02:03:56.694Z,57.36
2023-09-26T02:04:58.317Z,57.57
2023-09-26T02:06:00.173Z,57.43
2023-09-26T02:07:01.932Z,57.48
2023-09-26T02:08:05.850Z,57.55
2023-09-26T02:09:10.681Z,57.71
2023-09-26T02:10:12.395Z,57.72
2023-09-26T02:11:14.005Z,57.53
2023-09-26T02:12:16.130Z,57.32
2023-09-26T02:13:17.800Z,57.40
2023-09-26T02:14:19.472Z,57.86
2023-09-26T02:15:21.286Z,57.63
2023-09-26T02:16:22.958Z,58.03
2023-09-26T02:17:24.615Z,58.19
2023-09-26T02:18:26.240Z,58.03
2023-09-26T02:19:27.919Z,57.77
2023-09-26T02:20:29.566Z,57.87
2023-09-26T02:21:34.078Z,57.74
2023-09-26T02:22:36.526Z,57.69
2023-09-26T02:23:38.099Z,57.57
2023-09-26T02:24:39.815Z,57.64
2023-09-26T02:25:41.376Z,57.49
2023-09-26T02:26:42.910Z,57.64
2023-09-26T02:27:44.852Z,57.94
2023-09-26T02:28:48.809Z,57.74
2023-09-26T02:29:50.370Z,57.76
2023-09-26T02:30:52.014Z,57.72
2023-09-26T02:31:53.649Z,57.87
2023-09-26T02:32:55.610Z,58.03
2023-09-26T02:33:57.613Z,58.08
2023-09-26T02:35:01.676Z,58.02
2023-09-26T02:36:03.294Z,57.98
2023-09-26T02:37:04.936Z,57.97
2023-09-26T02:38:06.519Z,58.07
2023-09-26T02:39:08.100Z,57.89
2023-09-26T02:40:11.074Z,57.87
2023-09-26T02:41:16.387Z,57.93
2023-09-26T02:42:17.942Z,57.81
2023-09-26T02:43:19.712Z,57.88
2023-09-26T02:44:21.283Z,58.14
2023-09-26T02:45:23.518Z,58.05
2023-09-26T02:46:25.385Z,58.18
2023-09-26T02:47:27.164Z,58.15
2023-09-26T02:48:31.318Z,58.12
2023-09-26T02:49:35.385Z,58.07
2023-09-26T02:50:36.940Z,58.02
2023-09-26T02:51:38.489Z,57.99
2023-09-26T02:52:42.095Z,58.00
2023-09-26T02:53:43.876Z,57.81
2023-09-26T02:54:47.989Z,57.97
2023-09-26T02:55:51.764Z,58.07
2023-09-26T02:56:53.295Z,57.76
2023-09-26T02:57:54.886Z,58.55
2023-09-26T02:58:59.719Z,58.08
2023-09-26T03:00:01.407Z,58.23
2023-09-26T03:01:04.507Z,58.42
2023-09-26T03:02:07.344Z,58.41
2023-09-26T03:03:09.044Z,58.36
2023-09-26T03:04:10.779Z,58.36
2023-09-26T03:05:12.716Z,58.47
2023-09-26T03:06:17.618Z,58.29
2023-09-26T03:07:19.319Z,58.46
2023-09-26T03:08:21.017Z,58.71
2023-09-26T03:09:25.391Z,58.63
2023-09-26T03:10:27.006Z,58.48
2023-09-26T03:11:28.734Z,58.40
2023-09-26T03:12:30.253Z,58.39
2023-09-26T03:13:34.544Z,58.59
2023-09-26T03:14:38.607Z,58.73
2023-09-26T03:15:42.312Z,58.90
2023-09-26T03:16:44.629Z,58.89
2023-09-26T03:17:49.365Z,59.01
2023-09-26T03:18:56.364Z,59.11
2023-09-26T03:19:58.053Z,58.94
2023-09-26T03:21:02.203Z,58.97
2023-09-26T03:22:04.487Z,59.17
2023-09-26T03:23:08.499Z,58.70
2023-09-26T03:24:10.918Z,58.66
2023-09-26T03:25:13.051Z,58.55
2023-09-26T03:26:15.849Z,58.52
2023-09-26T03:27:17.426Z,58.66
2023-09-26T03:28:19.278Z,58.54
2023-09-26T03:29:23.060Z,58.36
2023-09-26T03:30:28.489Z,58.41
2023-09-26T03:31:30.167Z,58.41
2023-09-26T03:32:31.887Z,58.38
2023-09-26T03:33:36.655Z,58.37
2023-09-26T03:34:38.218Z,58.11
2023-09-26T03:35:39.821Z,58.36
2023-09-26T03:36:41.478Z,58.14
2023-09-26T03:37:43.039Z,57.98
2023-09-26T03:38:44.605Z,57.96
2023-09-26T03:39:47.861Z,58.12
2023-09-26T03:41:01.570Z,58.07
2023-09-26T03:42:03.140Z,57.94
2023-09-26T03:43:04.891Z,58.18
2023-09-26T03:44:06.990Z,58.09
2023-09-26T03:45:09.536Z,58.42
2023-09-26T03:46:11.316Z,58.13
2023-09-26T03:47:12.966Z,58.23
2023-09-26T03:48:14.631Z,58.46
2023-09-26T03:49:16.400Z,58.19
2023-09-26T03:50:20.550Z,58.07
2023-09-26T03:51:22.109Z,58.22
2023-09-26T03:52:24.359Z,58.26
2023-09-26T03:53:26.077Z,58.50
2023-09-26T03:54:28.969Z,58.44
2023-09-26T03:55:30.687Z,58.40
2023-09-26T03:56:32.254Z,58.49
2023-09-26T03:57:34.162Z,58.48
2023-09-26T03:58:36.137Z,58.63
2023-09-26T03:59:37.775Z,58.50
2023-09-26T04:00:39.349Z,58.32
2023-09-26T04:01:41.540Z,58.41
2023-09-26T04:02:44.122Z,58.18
2023-09-26T04:03:50.256Z,58.23
2023-09-26T04:04:52.384Z,58.09
2023-09-26T04:05:57.454Z,57.95
2023-09-26T04:06:59.460Z,58.13
2023-09-26T04:08:04.243Z,57.81
2023-09-26T04:09:08.326Z,57.92
2023-09-26T04:10:10.197Z,57.84
2023-09-26T04:11:15.588Z,57.77
2023-09-26T04:12:21.883Z,57.74
2023-09-26T04:13:23.454Z,58.12
2023-09-26T04:14:26.179Z,58.03
2023-09-26T04:15:27.723Z,57.87
2023-09-26T04:16:29.298Z,57.63
2023-09-26T04:17:31.054Z,57.68
2023-09-26T04:18:32.875Z,57.82
2023-09-26T04:19:34.486Z,58.09
2023-09-26T04:20:38.013Z,57.98
2023-09-26T04:21:40.097Z,58.01
2023-09-26T04:22:41.683Z,58.09
2023-09-26T04:23:46.238Z,57.98
2023-09-26T04:24:47.756Z,58.14
2023-09-26T04:25:49.307Z,57.99
2023-09-26T04:26:50.981Z,57.73
2023-09-26T04:27:53.264Z,57.94
2023-09-26T04:28:54.877Z,57.72
2023-09-26T04:29:56.570Z,57.93
2023-09-26T04:31:30.738Z,57.56
2023-09-26T04:32:33.503Z,57.70
2023-09-26T04:33:35.256Z,57.59
2023-09-26T04:34:36.834Z,57.92
2023-09-26T04:35:40.920Z,57.42
2023-09-26T04:36:44.886Z,57.68
2023-09-26T04:37:49.236Z,57.50
2023-09-26T04:38:51.120Z,57.32
2023-09-26T04:39:52.709Z,57.51
2023-09-26T04:40:56.909Z,57.31
2023-09-26T04:41:58.638Z,57.54
2023-09-26T04:43:06.645Z,57.49
2023-09-26T04:44:10.680Z,57.57
2023-09-26T04:45:12.428Z,57.16
2023-09-26T04:46:17.655Z,57.13
2023-09-26T04:47:19.449Z,57.68
2023-09-26T04:48:26.134Z,57.69
2023-09-26T04:49:27.950Z,57.55
2023-09-26T04:50:32.718Z,57.61
2023-09-26T04:51:34.342Z,58.15
2023-09-26T04:52:37.222Z,57.73
2023-09-26T04:53:41.218Z,57.57
2023-09-26T04:54:43.324Z,57.57
2023-09-26T04:55:49.859Z,57.71
2023-09-26T04:56:51.602Z,57.26
2023-09-26T04:57:54.184Z,57.45
2023-09-26T04:59:00.627Z,57.89
2023-09-26T05:00:07.014Z,57.31
2023-09-26T05:01:17.774Z,57.71
2023-09-26T05:02:19.491Z,57.35
2023-09-26T05:03:21.154Z,57.48
2023-09-26T05:04:23.257Z,57.26
2023-09-26T05:05:29.360Z,57.17
2023-09-26T05:06:31.242Z,57.25
2023-09-26T05:07:32.990Z,57.52
2023-09-26T05:08:34.597Z,58.04
2023-09-26T05:09:38.149Z,57.98
2023-09-26T05:10:40.099Z,58.32
2023-09-26T05:11:41.808Z,57.83
2023-09-26T05:12:43.690Z,58.31
2023-09-26T05:13:45.800Z,58.31
2023-09-26T05:14:49.673Z,58.02
2023-09-26T05:15:52.212Z,57.75
2023-09-26T05:16:54.210Z,57.78
2023-09-26T05:17:56.078Z,57.87
2023-09-26T05:18:57.817Z,57.83
2023-09-26T05:20:01.786Z,58.06
2023-09-26T05:21:07.079Z,58.02
2023-09-26T05:22:09.202Z,57.87
2023-09-26T05:23:10.983Z,58.37
2023-09-26T05:24:12.877Z,57.81
2023-09-26T05:25:15.085Z,58.06
2023-09-26T05:26:17.073Z,57.83
2023-09-26T05:27:18.709Z,57.84
2023-09-26T05:28:20.356Z,57.92
2023-09-26T05:29:22.257Z,57.60
2023-09-26T05:30:23.958Z,57.67
2023-09-26T05:31:29.453Z,57.83
2023-09-26T05:32:31.378Z,57.70
2023-09-26T05:33:36.324Z,57.87
2023-09-26T05:34:38.064Z,57.67
2023-09-26T05:35:40.324Z,57.77
2023-09-26T05:36:42.029Z,57.74
2023-09-26T05:37:43.618Z,57.80
2023-09-26T05:38:45.418Z,57.54
2023-09-26T05:39:46.993Z,57.81
2023-09-26T05:40:50.795Z,57.54
2023-09-26T05:41:53.085Z,57.71
2023-09-26T05:42:54.786Z,57.43
2023-09-26T05:43:56.427Z,57.87
2023-09-26T05:45:00.864Z,57.57
2023-09-26T05:46:05.275Z,57.61
2023-09-26T05:47:07.348Z,57.48
2023-09-26T05:48:11.445Z,57.57
2023-09-26T05:49:15.575Z,57.43
2023-09-26T05:50:17.380Z,57.67
2023-09-26T05:51:18.966Z,58.03
2023-09-26T05:52:23.598Z,57.58
2023-09-26T05:53:25.330Z,57.58
2023-09-26T05:54:32.062Z,58.07
2023-09-26T05:55:34.067Z,58.13
2023-09-26T05:56:38.176Z,58.21
2023-09-26T05:57:42.099Z,58.27
2023-09-26T05:58:48.084Z,58.54
2023-09-26T05:59:51.917Z,58.54
2023-09-26T06:00:54.824Z,58.33
2023-09-26T06:01:56.726Z,58.23
2023-09-26T06:03:00.843Z,58.40
2023-09-26T06:04:02.732Z,58.22
2023-09-26T06:05:04.791Z,58.73
2023-09-26T06:06:08.931Z,58.35
2023-09-26T06:07:11.050Z,58.37
2023-09-26T06:08:17.058Z,58.23
2023-09-26T06:09:19.073Z,57.65
2023-09-26T06:10:23.100Z,57.60
2023-09-26T06:11:27.230Z,57.91
2023-09-26T06:12:31.575Z,57.92
2023-09-26T06:13:33.443Z,57.95
2023-09-26T06:14:35.244Z,57.74
2023-09-26T06:15:37.017Z,57.84
2023-09-26T06:16:38.789Z,58.24
2023-09-26T06:17:41.525Z,58.26
2023-09-26T06:18:46.557Z,57.85
2023-09-26T06:19:48.601Z,57.94
2023-09-26T06:20:50.386Z,57.94
2023-09-26T06:21:52.009Z,58.05
2023-09-26T06:22:54.142Z,57.85
2023-09-26T06:23:58.354Z,57.67
2023-09-26T06:25:01.911Z,57.98
2023-09-26T06:26:04.317Z,57.95
2023-09-26T06:27:06.066Z,57.64
2023-09-26T06:28:08.298Z,57.92
2023-09-26T06:29:10.185Z,57.76
2023-09-26T06:30:12.708Z,57.97
2023-09-26T06:31:15.529Z,57.84
2023-09-26T06:32:20.152Z,57.93
2023-09-26T06:33:21.939Z,57.73
2023-09-26T06:34:23.782Z,57.84
2023-09-26T06:35:25.630Z,58.06
2023-09-26T06:36:31.580Z,58.16
2023-09-26T06:37:33.444Z,57.95
2023-09-26T06:38:35.298Z,58.04
2023-09-26T06:39:37.511Z,58.26
2023-09-26T06:40:40.485Z,57.96
2023-09-26T06:41:46.739Z,57.75
2023-09-26T06:42:48.530Z,57.63
2023-09-26T06:43:50.511Z,57.77
2023-09-26T06:44:54.740Z,57.58
2023-09-26T06:45:56.504Z,58.02
2023-09-26T06:47:00.616Z,57.78
2023-09-26T06:48:08.003Z,57.89
2023-09-26T06:49:11.531Z,57.69
2023-09-26T06:50:13.721Z,57.84
2023-09-26T06:51:15.484Z,57.71
2023-09-26T06:52:17.228Z,57.72
2023-09-26T06:53:19.014Z,57.63
2023-09-26T06:54:20.818Z,57.53
2023-09-26T06:55:22.600Z,57.54
2023-09-26T06:56:26.594Z,57.62
2023-09-26T06:57:28.384Z,57.80
2023-09-26T06:58:30.768Z,57.44
2023-09-26T06:59:32.553Z,57.23
2023-09-26T07:00:35.375Z,57.76
2023-09-26T07:01:37.341Z,57.33
2023-09-26T07:02:43.892Z,57.28
2023-09-26T07:03:50.841Z,57.39
2023-09-26T07:04:56.041Z,57.43
2023-09-26T07:06:08.339Z,57.29
2023-09-26T07:07:10.083Z,57.61
2023-09-26T07:08:15.379Z,57.20
2023-09-26T07:09:17.913Z,57.44
2023-09-26T07:10:19.703Z,57.41
2023-09-26T07:11:24.088Z,57.57
2023-09-26T07:12:27.344Z,57.29
2023-09-26T07:13:47.567Z,57.22
2023-09-26T07:14:50.575Z,57.22
2023-09-26T07:16:00.748Z,57.09
2023-09-26T07:17:03.377Z,57.21
2023-09-26T07:18:07.877Z,57.16
2023-09-26T07:19:09.662Z,57.23
2023-09-26T07:20:17.283Z,57.46
2023-09-26T07:21:19.056Z,57.17
2023-09-26T07:22:20.812Z,57.38
2023-09-26T07:23:24.984Z,57.30
2023-09-26T07:24:38.476Z,57.01
2023-09-26T07:25:44.907Z,57.04
2023-09-26T07:26:50.869Z,56.99
2023-09-26T07:27:52.720Z,57.12
2023-09-26T07:28:54.605Z,57.27
2023-09-26T07:29:59.657Z,56.94
2023-09-26T07:31:05.719Z,56.73
2023-09-26T07:32:07.492Z,56.52
2023-09-26T07:33:09.147Z,56.57
2023-09-26T07:34:15.011Z,56.27
2023-09-26T07:35:19.438Z,56.09
2023-09-26T07:36:21.229Z,55.74
2023-09-26T07:37:22.917Z,55.52
2023-09-26T07:38:24.743Z,55.05
2023-09-26T07:39:26.617Z,54.70
2023-09-26T07:40:33.165Z,55.22
2023-09-26T07:41:35.467Z,54.76
2023-09-26T07:42:38.019Z,54.22
2023-09-26T07:43:40.920Z,54.13
2023-09-26T07:44:42.902Z,54.06
2023-09-26T07:45:46.825Z,54.05
2023-09-26T07:46:50.847Z,54.13
2023-09-26T07:47:52.625Z,53.80
2023-09-26T07:48:54.586Z,53.80
2023-09-26T07:49:58.782Z,53.78
2023-09-26T07:51:00.591Z,53.77
2023-09-26T07:52:02.515Z,53.74
2023-09-26T07:53:04.436Z,53.83
2023-09-26T07:54:09.369Z,53.77
2023-09-26T07:55:13.799Z,53.57
2023-09-26T07:56:15.642Z,53.66
2023-09-26T07:57:22.020Z,53.53
2023-09-26T07:58:23.966Z,53.10
2023-09-26T07:59:28.095Z,53.12
2023-09-26T08:00:29.798Z,52.86
2023-09-26T08:01:34.341Z,52.62
2023-09-26T08:02:36.108Z,52.45
2023-09-26T08:03:40.739Z,52.95
2023-09-26T08:04:42.723Z,52.46
2023-09-26T08:05:47.035Z,52.36
2023-09-26T08:06:51.598Z,52.32
2023-09-26T08:07:56.172Z,52.19
2023-09-26T08:08:58.830Z,52.28
2023-09-26T08:10:03.559Z,52.08
2023-09-26T08:11:13.839Z,52.09
2023-09-26T08:12:15.543Z,52.04
2023-09-26T08:13:17.157Z,52.35
2023-09-26T08:14:21.063Z,52.16
2023-09-26T08:15:30.160Z,51.92
2023-09-26T08:16:31.918Z,51.88
2023-09-26T08:17:33.808Z,51.85
2023-09-26T08:18:35.572Z,52.30
2023-09-26T08:19:37.709Z,52.00
2023-09-26T08:20:39.541Z,51.96
2023-09-26T08:21:45.545Z,52.01
2023-09-26T08:22:51.982Z,51.82
2023-09-26T08:23:58.766Z,51.47
2023-09-26T08:25:02.615Z,51.46
2023-09-26T08:26:04.771Z,51.84
2023-09-26T08:27:07.286Z,51.29
2023-09-26T08:28:11.691Z,51.14
2023-09-26T08:29:13.416Z,50.91
2023-09-26T08:30:15.095Z,51.52
2023-09-26T08:31:19.030Z,51.09
2023-09-26T08:32:21.116Z,51.27
2023-09-26T08:33:28.800Z,50.97
2023-09-26T08:34:30.492Z,51.02
2023-09-26T08:35:32.380Z,51.31
2023-09-26T08:36:34.333Z,51.29
2023-09-26T08:37:39.037Z,51.08
2023-09-26T08:38:44.701Z,51.10
2023-09-26T08:39:48.132Z,51.02
2023-09-26T08:40:53.280Z,50.83
2023-09-26T08:42:01.139Z,50.82
2023-09-26T08:43:06.150Z,50.82
2023-09-26T08:44:08.165Z,50.62
2023-09-26T08:45:15.280Z,50.52
2023-09-26T08:46:22.500Z,50.27
2023-09-26T08:47:28.477Z,50.10
2023-09-26T08:48:33.617Z,50.14
2023-09-26T08:49:42.520Z,50.32
2023-09-26T08:50:46.659Z,50.31
2023-09-26T08:51:48.483Z,50.12
2023-09-26T08:52:53.419Z,49.85
2023-09-26T08:53:55.283Z,49.84
2023-09-26T08:54:57.123Z,49.82
2023-09-26T08:55:59.627Z,49.82
2023-09-26T08:57:02.725Z,49.77
2023-09-26T08:58:07.372Z,49.42
2023-09-26T08:59:09.996Z,49.57
2023-09-26T09:00:14.652Z,49.65
2023-09-26T09:01:18.330Z,49.50
2023-09-26T09:02:20.244Z,49.77
2023-09-26T09:03:24.602Z,49.38
2023-09-26T09:04:26.444Z,48.94
2023-09-26T09:05:30.722Z,49.31
2023-09-26T09:06:32.521Z,48.88
2023-09-26T09:07:34.397Z,49.15
2023-09-26T09:08:38.459Z,48.96
2023-09-26T09:10:06.320Z,48.77
2023-09-26T09:11:08.194Z,48.87
2023-09-26T09:12:27.685Z,49.27
2023-09-26T09:13:43.643Z,48.43
2023-09-26T09:14:51.097Z,48.63
2023-09-26T09:15:53.102Z,48.55
2023-09-26T09:17:00.516Z,48.61
2023-09-26T09:18:02.439Z,48.44
2023-09-26T09:19:04.628Z,48.77
2023-09-26T09:20:06.950Z,48.11
2023-09-26T09:21:34.359Z,47.76
2023-09-26T09:22:36.233Z,47.71
2023-09-26T09:23:47.832Z,47.46
2023-09-26T09:24:57.500Z,47.16
2023-09-26T09:26:11.795Z,47.01
2023-09-26T09:27:17.869Z,46.84
2023-09-26T09:28:26.121Z,46.69
2023-09-26T09:29:27.806Z,47.09
2023-09-26T09:30:37.106Z,47.47
2023-09-26T09:31:38.944Z,46.57
2023-09-26T09:32:42.225Z,46.02
2023-09-26T09:33:48.194Z,45.48
2023-09-26T09:34:50.531Z,45.41
2023-09-26T09:35:52.504Z,45.46
2023-09-26T09:36:57.721Z,44.63
2023-09-26T09:37:59.873Z,44.59
2023-09-26T09:39:03.742Z,43.49
2023-09-26T09:40:09.550Z,44.04
2023-09-26T09:41:11.545Z,43.35
2023-09-26T09:42:17.987Z,43.15
2023-09-26T09:43:21.756Z,43.04
2023-09-26T09:44:23.645Z,43.09
2023-09-26T09:45:32.590Z,43.63
2023-09-26T09:46:40.085Z,43.59
2023-09-26T09:47:46.142Z,43.76
2023-09-26T09:48:52.209Z,43.72
2023-09-26T09:50:01.054Z,43.12
2023-09-26T09:51:10.309Z,43.34
2023-09-26T09:52:12.925Z,43.04
2023-09-26T09:53:19.066Z,42.56
2023-09-26T09:54:22.113Z,42.48
2023-09-26T09:55:31.012Z,42.21
2023-09-26T09:56:35.761Z,42.13
2023-09-26T09:57:46.907Z,41.83
2023-09-26T09:58:58.403Z,42.06
2023-09-26T10:00:00.751Z,42.01
2023-09-26T10:01:08.458Z,42.05
2023-09-26T10:02:13.626Z,42.26
2023-09-26T10:03:17.001Z,42.17
2023-09-26T10:04:20.361Z,42.12
2023-09-26T10:05:25.602Z,41.95
2023-09-26T10:06:28.362Z,42.25
2023-09-26T10:07:34.786Z,42.23
2023-09-26T10:08:39.485Z,42.38
2023-09-26T10:09:42.092Z,42.27
2023-09-26T10:10:45.041Z,42.85
2023-09-26T10:11:48.795Z,42.51
2023-09-26T10:13:06.287Z,42.58
2023-09-26T10:14:23.195Z,42.60
2023-09-26T10:15:31.418Z,42.97
2023-09-26T10:16:33.657Z,42.60
2023-09-26T10:17:37.180Z,42.21
2023-09-26T10:18:43.192Z,42.27
2023-09-26T10:19:57.849Z,42.17
2023-09-26T10:21:22.460Z,42.67
2023-09-26T10:22:34.440Z,42.65
2023-09-26T10:23:43.618Z,42.51
2023-09-26T10:24:48.142Z,42.26
2023-09-26T10:25:50.021Z,42.11
2023-09-26T10:26:52.311Z,42.86
2023-09-26T10:29:07.179Z,42.46
2023-09-26T10:30:15.487Z,42.38
2023-09-26T10:31:19.835Z,42.38
2023-09-26T10:32:39.934Z,42.30
2023-09-26T10:33:54.539Z,42.12
2023-09-26T10:35:00.579Z,42.08
2023-09-26T10:36:03.853Z,42.30
2023-09-26T10:37:09.444Z,42.68
2023-09-26T10:38:20.069Z,42.41
2023-09-26T10:39:35.449Z,42.44
2023-09-26T10:40:37.228Z,42.35
2023-09-26T10:42:07.130Z,42.19
2023-09-26T10:44:11.138Z,42.13
2023-09-26T10:45:18.938Z,41.51
2023-09-26T10:46:20.782Z,40.93
2023-09-26T10:47:24.038Z,40.90
2023-09-26T10:48:28.882Z,41.14
2023-09-26T10:49:30.721Z,40.81
2023-09-26T10:50:33.909Z,41.02
2023-09-26T10:51:35.870Z,40.86
2023-09-26T10:52:42.826Z,41.66
2023-09-26T10:53:48.655Z,40.67
2023-09-26T10:54:52.872Z,40.67
2023-09-26T10:55:55.374Z,40.07
2023-09-26T10:57:00.798Z,40.22
2023-09-26T10:58:02.491Z,40.39
2023-09-26T10:59:04.154Z,40.39
2023-09-26T11:00:14.126Z,40.23
2023-09-26T11:01:18.265Z,40.47
2023-09-26T11:02:24.590Z,39.95
2023-09-26T11:03:26.820Z,40.31
2023-09-26T11:04:33.157Z,40.49
2023-09-26T11:05:37.349Z,40.82
2023-09-26T11:06:40.751Z,40.58
2023-09-26T11:09:08.850Z,40.39
2023-09-26T11:10:15.648Z,40.36
2023-09-26T11:11:20.433Z,40.10
2023-09-26T11:12:23.287Z,40.22
2023-09-26T11:13:26.032Z,39.85
2023-09-26T11:14:28.271Z,40.21
2023-09-26T11:15:32.332Z,40.05
2023-09-26T11:16:34.134Z,39.77
2023-09-26T11:17:39.257Z,39.86
2023-09-26T11:18:44.846Z,39.53
2023-09-26T11:19:46.843Z,39.18
2023-09-26T11:21:02.498Z,39.39
2023-09-26T11:22:11.467Z,39.40
2023-09-26T11:23:33.179Z,39.19
2023-09-26T11:24:34.925Z,39.40
2023-09-26T11:25:37.834Z,39.90
2023-09-26T11:26:39.758Z,39.72
2023-09-26T11:27:43.483Z,39.46
2023-09-26T11:28:47.644Z,39.05
2023-09-26T11:29:49.404Z,39.18
2023-09-26T11:30:50.973Z,39.29
2023-09-26T11:31:54.585Z,39.18
2023-09-26T11:32:56.936Z,39.14
2023-09-26T11:33:58.933Z,38.99
2023-09-26T11:35:00.705Z,38.64
2023-09-26T11:36:05.150Z,37.94
2023-09-26T11:37:08.215Z,37.90
2023-09-26T11:38:10.194Z,38.33
2023-09-26T11:39:18.034Z,37.95
2023-09-26T11:40:24.105Z,37.53
2023-09-26T11:41:35.651Z,37.21
2023-09-26T11:42:47.442Z,37.67
2023-09-26T11:43:49.303Z,37.22
2023-09-26T11:44:55.555Z,36.40
2023-09-26T11:46:06.123Z,37.17
2023-09-26T11:47:10.116Z,36.79
2023-09-26T11:48:11.934Z,36.08
2023-09-26T11:49:15.188Z,36.32
2023-09-26T11:50:17.273Z,36.41
2023-09-26T11:51:19.639Z,36.08
2023-09-26T11:52:21.614Z,35.82
2023-09-26T11:53:26.946Z,35.60
2023-09-26T11:54:28.787Z,34.27
2023-09-26T11:55:31.566Z,33.71
2023-09-26T11:56:34.333Z,33.70
2023-09-26T11:57:40.580Z,33.81
2023-09-26T11:58:42.314Z,33.83
2023-09-26T11:59:43.990Z,34.29
2023-09-26T12:00:45.713Z,33.69
2023-09-26T12:01:47.708Z,34.03
2023-09-26T12:02:51.145Z,34.19
2023-09-26T12:03:53.091Z,34.74
2023-09-26T12:04:54.899Z,35.13
2023-09-26T12:05:56.592Z,35.15
2023-09-26T12:06:58.255Z,35.60
2023-09-26T12:08:00.143Z,35.73
2023-09-26T12:09:04.194Z,34.47
2023-09-26T12:10:07.742Z,33.79
2023-09-26T12:11:09.626Z,34.24
2023-09-26T12:12:11.674Z,34.66
2023-09-26T12:13:13.484Z,34.56
2023-09-26T12:14:18.659Z,34.89
2023-09-26T12:15:25.883Z,34.74
2023-09-26T12:16:32.704Z,34.45
2023-09-26T12:17:37.084Z,33.94
2023-09-26T12:18:38.912Z,34.18
2023-09-26T12:19:40.606Z,34.65
2023-09-26T12:20:42.423Z,34.27
2023-09-26T12:21:46.281Z,34.09
2023-09-26T12:22:52.496Z,34.30
2023-09-26T12:23:55.543Z,34.27
2023-09-26T12:24:59.806Z,34.11
2023-09-26T12:26:01.518Z,34.25
2023-09-26T12:27:05.115Z,33.94
2023-09-26T12:28:06.943Z,33.75
2023-09-26T12:29:11.587Z,33.65
2023-09-26T12:30:14.227Z,33.71
2023-09-26T12:31:18.396Z,33.67
2023-09-26T12:32:22.475Z,33.76
2023-09-26T12:33:24.439Z,34.42
2023-09-26T12:34:26.071Z,34.46
2023-09-26T12:35:27.826Z,34.21
2023-09-26T12:36:32.903Z,34.08
2023-09-26T12:37:35.189Z,34.38
2023-09-26T12:38:37.094Z,34.05
2023-09-26T12:39:38.905Z,34.07
2023-09-26T12:40:40.580Z,34.67
2023-09-26T12:41:42.667Z,34.34
2023-09-26T12:42:44.622Z,34.09
2023-09-26T12:43:46.440Z,34.09
2023-09-26T12:44:48.061Z,34.28
2023-09-26T12:45:49.827Z,34.04
2023-09-26T12:46:53.950Z,34.47
2023-09-26T12:47:55.763Z,34.45
2023-09-26T12:48:57.716Z,34.12
2023-09-26T12:50:02.159Z,33.45
2023-09-26T12:51:04.485Z,33.67
2023-09-26T12:52:08.659Z,33.68
2023-09-26T12:53:10.449Z,33.31
2023-09-26T12:54:12.288Z,32.93
2023-09-26T12:55:14.881Z,32.85
2023-09-26T12:56:18.596Z,33.08
2023-09-26T12:57:22.539Z,33.41
2023-09-26T12:58:30.338Z,33.67
2023-09-26T12:59:35.896Z,33.46
2023-09-26T13:00:37.732Z,33.45
2023-09-26T13:01:39.574Z,33.44
2023-09-26T13:02:42.140Z,33.57
2023-09-26T13:03:46.428Z,33.14
2023-09-26T13:04:48.430Z,33.54
2023-09-26T13:05:50.152Z,33.67
2023-09-26T13:06:51.797Z,33.66
2023-09-26T13:07:53.586Z,33.65
2023-09-26T13:08:55.274Z,33.57
2023-09-26T13:09:59.430Z,33.25
2023-09-26T13:11:01.258Z,33.49
2023-09-26T13:12:03.019Z,32.60
2023-09-26T13:13:04.625Z,33.11
2023-09-26T13:14:07.001Z,32.94
2023-09-26T13:15:11.930Z,32.98
2023-09-26T13:16:14.693Z,33.11
2023-09-26T13:17:19.683Z,33.36
2023-09-26T13:18:21.525Z,33.02
2023-09-26T13:19:26.225Z,32.53
2023-09-26T13:20:28.010Z,32.44
2023-09-26T13:21:32.077Z,32.76
2023-09-26T13:22:33.606Z,32.80
2023-09-26T13:23:35.415Z,33.05
2023-09-26T13:24:44.861Z,33.11
2023-09-26T13:25:46.629Z,33.13
2023-09-26T13:26:49.229Z,32.90
2023-09-26T13:27:50.911Z,33.04
2023-09-26T13:28:52.504Z,33.51
2023-09-26T13:29:54.905Z,33.13
2023-09-26T13:30:58.648Z,33.03
2023-09-26T13:32:01.005Z,33.35
2023-09-26T13:33:02.976Z,32.89
2023-09-26T13:34:09.667Z,32.73
2023-09-26T13:35:11.416Z,32.93
2023-09-26T13:36:15.692Z,32.96
2023-09-26T13:37:17.506Z,33.08
2023-09-26T13:38:19.272Z,32.70
2023-09-26T13:39:23.679Z,33.28
2023-09-26T13:40:25.773Z,33.08
2023-09-26T13:41:30.307Z,33.70
2023-09-26T13:42:32.052Z,32.65
2023-09-26T13:43:36.588Z,32.92
2023-09-26T13:44:43.072Z,32.87
2023-09-26T13:45:44.895Z,32.29